Hablingbo, Sweden

9:42 AM CET on December 04, 2016 (GMT +0100)
142 | | Change Station

Elev 65 ft 57.13 °N, 18.34 °E | Updated 5 minutes ago

Scattered Clouds
Scattered Clouds
28.6 °F
Feels Like 29 °F
N
0.6
Wind Variable Wind from SW
Gusts 1.9 mph

Today
High -- | Low -- °F
--% Chance of Precip.
Yesterday
High -- | Low -- °F
Precip. -- in
Pressure 30.21 in
Visibility 6.2 miles
Clouds Scattered Clouds 4200 ft
Windchill 29 °F
Dew Point 27 °F
Humidity 93%
Rainfall 0.00 in
Snow Depth Not available.
8:06 AM 3:07 PM
Waxing Crescent, 21% visible
METAR ESSV 040820Z 19006KT 9999 SCT042 M00/M03 Q1023 R21/09//80
Pressure 30.21 in
Visibility 6.2 miles
Clouds Scattered Clouds 4200 ft
Windchill 29 °F
Dew Point 27 °F
Humidity 93%
Rainfall 0.00 in
Snow Depth Not available.
8:06 AM 3:07 PM
Waxing Crescent, 21% visible
METAR ESSV 040820Z 19006KT 9999 SCT042 M00/M03 Q1023 R21/09//80

10-Day Weather Forecast

×

Almanac

Astronomy

Dec. 04, 2016 Rise Set
Actual Time
Civil Twilight
Nautical Twilight
Astronomical Twilight
Moon
Length of Visible Light
Length of Day
Tomorrow will be .
, % of the Moon is Illuminated

Today's Extremes

Country Highs Country Lows

Community

WunderPhotos

Upload Photos

1,955,587 photos uploaded!

WunderBlog® & News

Nearby

Air Quality

  Air Quality AQ Index Pollutant
Not available.

Snow Depth

Station Depth Elevation

Earthquake Activity

City Distance Mag. Time & Date
Minimum magnitude displayed is 2.5.

Coastal Water Temperatures

Place Temperature

Stations

Nearby Weather Stations

Station Location Temp. Windchill Dew Point Humidity Wind Precip. Elev Updated Type